createdAt,value
2019-01-21T00:00:34.225Z,17.42
2019-01-21T00:03:00.784Z,19.92
2019-01-21T00:05:27.265Z,17.67
2019-01-21T00:07:54.035Z,18.12
2019-01-21T00:10:20.279Z,16.00
2019-01-21T00:12:46.505Z,16.20
2019-01-21T00:15:13.140Z,17.75
2019-01-21T00:17:39.438Z,18.45
2019-01-21T00:20:06.383Z,18.12
2019-01-21T00:22:32.949Z,16.93
2019-01-21T00:24:59.286Z,16.37
2019-01-21T00:27:25.524Z,17.57
2019-01-21T00:29:51.803Z,17.25
2019-01-21T00:32:18.187Z,17.52
2019-01-21T00:34:44.584Z,17.85
2019-01-21T00:37:11.071Z,16.67
2019-01-21T00:39:37.586Z,15.80
2019-01-21T00:42:04.276Z,17.07
2019-01-21T00:44:30.563Z,16.87
2019-01-21T00:46:57.061Z,18.12
2019-01-21T00:49:23.392Z,15.25
2019-01-21T00:51:49.766Z,16.82
2019-01-21T00:54:16.164Z,15.88
2019-01-21T00:56:42.556Z,18.07
2019-01-21T00:59:09.081Z,18.45
2019-01-21T01:01:35.460Z,17.87
2019-01-21T01:04:01.807Z,18.27
2019-01-21T01:06:28.055Z,19.67
2019-01-21T01:08:54.321Z,20.23
2019-01-21T01:11:25.693Z,19.27
2019-01-21T01:13:52.761Z,19.82
2019-01-21T01:16:19.138Z,19.82
2019-01-21T01:18:45.407Z,21.45
2019-01-21T01:21:11.625Z,20.82
2019-01-21T01:23:38.341Z,20.32
2019-01-21T01:29:27.933Z,18.60
2019-01-21T01:31:54.303Z,21.37
2019-01-21T01:34:20.564Z,16.90
2019-01-21T01:36:46.765Z,19.30
2019-01-21T01:39:13.125Z,19.20
2019-01-21T01:41:39.379Z,18.52
2019-01-21T01:44:07.053Z,19.45
2019-01-21T01:46:33.632Z,20.57
2019-01-21T01:49:00.186Z,19.87
2019-01-21T01:51:26.386Z,20.75
2019-01-21T01:53:52.677Z,19.77
2019-01-21T01:56:18.877Z,20.88
2019-01-21T01:58:45.294Z,18.00
2019-01-21T02:01:11.691Z,20.37
2019-01-21T02:03:38.316Z,19.92
2019-01-21T02:06:04.666Z,18.52
2019-01-21T02:08:31.107Z,17.98
2019-01-21T02:10:57.383Z,18.75
2019-01-21T02:13:23.708Z,20.50
2019-01-21T02:15:50.018Z,18.30
2019-01-21T02:18:16.380Z,18.80
2019-01-21T02:20:43.584Z,17.48
2019-01-21T02:23:13.851Z,19.45
2019-01-21T02:25:44.612Z,18.87
2019-01-21T02:28:17.462Z,17.10
2019-01-21T02:31:05.972Z,17.60
2019-01-21T02:33:47.815Z,17.77
2019-01-21T02:36:26.780Z,18.52
2019-01-21T02:39:18.136Z,16.50
2019-01-21T02:41:45.760Z,17.70
2019-01-21T02:44:40.038Z,18.85
2019-01-21T02:47:10.192Z,20.55
2019-01-21T02:50:01.385Z,19.70
2019-01-21T02:52:40.638Z,19.27
2019-01-21T02:55:16.910Z,20.32
2019-01-21T02:58:12.617Z,20.10
2019-01-21T03:00:45.553Z,20.65
2019-01-21T03:03:24.674Z,21.05
2019-01-21T03:06:00.887Z,19.92
2019-01-21T03:08:46.245Z,22.15
2019-01-21T03:11:28.378Z,21.70
2019-01-21T03:14:07.121Z,20.17
2019-01-21T03:16:57.124Z,20.65
2019-01-21T03:19:32.750Z,19.98
2019-01-21T03:22:02.931Z,19.15
2019-01-21T03:24:54.356Z,20.30
2019-01-21T03:27:43.665Z,19.60
2019-01-21T03:30:34.931Z,19.52
2019-01-21T03:33:41.084Z,21.70
2019-01-21T03:36:31.962Z,20.25
2019-01-21T03:39:10.804Z,19.35
2019-01-21T03:41:46.846Z,21.20
2019-01-21T03:44:16.928Z,19.20
2019-01-21T03:46:53.475Z,21.87
2019-01-21T03:49:23.573Z,18.80
2019-01-21T03:52:19.766Z,21.57
2019-01-21T03:54:47.301Z,21.23
2019-01-21T03:57:17.073Z,22.02
2019-01-21T04:00:08.173Z,21.87
2019-01-21T04:02:57.884Z,25.32
2019-01-21T04:05:28.006Z,21.95
2019-01-21T04:08:07.424Z,21.68
2019-01-21T04:10:49.764Z,22.75
2019-01-21T04:13:35.227Z,22.42
2019-01-21T04:16:05.587Z,21.90
2019-01-21T04:18:42.033Z,19.73
2019-01-21T04:21:24.069Z,24.45
2019-01-21T04:24:02.904Z,23.57
2019-01-21T04:26:45.052Z,21.25
2019-01-21T04:29:26.757Z,22.02
2019-01-21T04:32:06.605Z,20.95
2019-01-21T04:34:43.053Z,20.45
2019-01-21T04:37:16.089Z,21.00
2019-01-21T04:40:01.459Z,23.30
2019-01-21T04:42:40.391Z,24.32
2019-01-21T04:45:25.354Z,21.05
2019-01-21T04:51:33.790Z,21.05
2019-01-21T04:54:23.787Z,22.70
2019-01-21T04:57:19.881Z,22.67
2019-01-21T05:00:06.477Z,22.80
2019-01-21T05:03:03.768Z,21.52
2019-01-21T05:05:36.582Z,23.62
2019-01-21T05:08:15.278Z,21.73
2019-01-21T05:11:08.406Z,22.48
2019-01-21T05:13:50.440Z,24.50
2019-01-21T05:16:32.564Z,23.10
2019-01-21T05:19:08.393Z,23.27
2019-01-21T05:22:10.666Z,22.62
2019-01-21T05:24:43.828Z,25.35
2019-01-21T05:27:33.227Z,21.45
2019-01-21T05:30:12.449Z,21.33
2019-01-21T05:32:42.612Z,24.18
2019-01-21T05:35:34.024Z,23.80
2019-01-21T05:38:22.059Z,20.43
2019-01-21T05:41:12.339Z,22.73
2019-01-21T05:44:00.511Z,23.77
2019-01-21T05:46:50.142Z,21.77
2019-01-21T05:49:29.258Z,21.17
2019-01-21T05:52:19.153Z,23.15
2019-01-21T05:55:10.265Z,20.57
2019-01-21T05:57:52.509Z,19.15
2019-01-21T06:00:39.516Z,20.35
2019-01-21T06:03:12.772Z,21.23
2019-01-21T06:05:51.644Z,22.98
2019-01-21T06:08:42.863Z,22.48
2019-01-21T06:11:28.220Z,22.60
2019-01-21T06:14:26.011Z,21.93
2019-01-21T06:16:56.112Z,21.82
2019-01-21T06:19:35.078Z,22.98
2019-01-21T06:22:13.998Z,22.25
2019-01-21T06:25:05.111Z,21.68
2019-01-21T06:27:53.792Z,21.85
2019-01-21T06:30:36.137Z,22.45
2019-01-21T06:33:18.073Z,21.65
2019-01-21T06:38:58.814Z,23.90
2019-01-21T06:44:57.072Z,22.48
2019-01-21T06:47:27.126Z,22.65
2019-01-21T06:50:08.951Z,22.77
2019-01-21T06:52:59.720Z,23.70
2019-01-21T06:55:29.952Z,24.37
2019-01-21T06:58:24.312Z,24.20
2019-01-21T07:01:23.684Z,24.27
2019-01-21T07:04:09.621Z,23.70
2019-01-21T07:09:43.188Z,22.77
2019-01-21T07:12:33.310Z,21.93
2019-01-21T07:15:12.691Z,23.47
2019-01-21T07:18:04.196Z,21.70
2019-01-21T07:20:40.144Z,22.02
2019-01-21T07:23:15.924Z,21.95
2019-01-21T07:25:45.983Z,23.95
2019-01-21T07:28:31.188Z,22.75
2019-01-21T07:31:04.272Z,22.80
2019-01-21T07:33:49.257Z,22.13
2019-01-21T07:36:54.451Z,22.50
2019-01-21T07:39:33.774Z,23.05
2019-01-21T07:42:14.156Z,23.05
2019-01-21T07:44:50.052Z,22.05
2019-01-21T07:47:41.483Z,22.27
2019-01-21T07:50:17.718Z,25.20
2019-01-21T07:53:07.472Z,24.05
2019-01-21T07:55:52.883Z,25.77
2019-01-21T07:58:38.091Z,26.02
2019-01-21T08:01:08.194Z,24.65
2019-01-21T08:04:01.175Z,25.72
2019-01-21T08:06:49.892Z,25.50
2019-01-21T08:09:26.078Z,30.82
2019-01-21T08:12:30.003Z,29.20
2019-01-21T08:15:06.156Z,26.62
2019-01-21T08:18:13.742Z,27.90
2019-01-21T08:20:46.529Z,29.85
2019-01-21T08:23:31.692Z,26.80
2019-01-21T08:26:23.089Z,27.82
2019-01-21T08:29:02.233Z,29.67
2019-01-21T08:31:37.982Z,29.35
2019-01-21T08:34:28.078Z,30.17
2019-01-21T08:37:16.300Z,27.17
2019-01-21T08:39:52.563Z,30.20
2019-01-21T08:42:40.195Z,28.85
2019-01-21T08:45:30.174Z,30.27
2019-01-21T08:48:08.952Z,32.25
2019-01-21T08:51:00.748Z,31.73
2019-01-21T08:53:33.889Z,31.33
2019-01-21T08:56:08.272Z,32.50
2019-01-21T08:58:45.679Z,30.10
2019-01-21T09:01:25.198Z,34.40
2019-01-21T09:04:06.683Z,32.20
2019-01-21T09:07:00.505Z,30.75
2019-01-21T09:09:38.990Z,31.60
2019-01-21T09:12:21.753Z,32.28
2019-01-21T09:15:09.379Z,30.52
2019-01-21T09:17:42.269Z,33.18
2019-01-21T09:20:46.143Z,30.88
2019-01-21T09:23:38.303Z,31.30
2019-01-21T09:26:28.192Z,29.42
2019-01-21T09:29:16.856Z,32.33
2019-01-21T09:31:58.989Z,34.75
2019-01-21T09:34:56.717Z,33.42
2019-01-21T09:37:41.512Z,34.75
2019-01-21T09:40:17.579Z,29.48
2019-01-21T09:43:04.189Z,29.37
2019-01-21T09:45:53.239Z,30.12
2019-01-21T09:48:20.139Z,31.73
2019-01-21T09:50:48.465Z,33.25
2019-01-21T09:53:15.726Z,34.27
2019-01-21T09:55:46.560Z,34.33
2019-01-21T09:58:12.876Z,33.80
2019-01-21T10:00:39.237Z,34.30
2019-01-21T10:03:06.840Z,30.85
2019-01-21T10:05:35.673Z,32.63
2019-01-21T10:08:10.546Z,34.38
2019-01-21T10:10:40.719Z,30.48
2019-01-21T10:13:29.272Z,30.97
2019-01-21T10:16:08.358Z,31.95
2019-01-21T10:19:01.942Z,33.33
2019-01-21T10:21:43.757Z,32.80
2019-01-21T10:24:37.638Z,31.90
2019-01-21T10:27:07.741Z,31.50
2019-01-21T10:30:04.712Z,32.48
2019-01-21T10:32:50.805Z,33.67
2019-01-21T10:35:44.822Z,31.70
2019-01-21T10:38:42.155Z,35.35
2019-01-21T10:41:12.457Z,34.08
2019-01-21T10:43:59.417Z,34.00
2019-01-21T10:46:32.740Z,32.10
2019-01-21T10:52:41.807Z,32.33
2019-01-21T10:55:20.928Z,31.97
2019-01-21T10:57:56.958Z,35.85
2019-01-21T11:00:37.345Z,32.25
2019-01-21T11:03:19.745Z,35.10
2019-01-21T11:05:52.708Z,34.43
2019-01-21T11:08:34.581Z,33.15
2019-01-21T11:11:27.557Z,32.25
2019-01-21T11:14:07.042Z,31.80
2019-01-21T11:16:53.576Z,29.05
2019-01-21T11:19:33.245Z,31.87
2019-01-21T11:22:03.227Z,32.40
2019-01-21T11:24:39.672Z,33.73
2019-01-21T11:27:27.536Z,31.15
2019-01-21T11:30:17.608Z,31.07
2019-01-21T11:32:54.204Z,30.20
2019-01-21T11:35:49.917Z,31.07
2019-01-21T11:38:41.429Z,30.45
2019-01-21T11:41:23.782Z,32.42
2019-01-21T11:44:03.143Z,30.72
2019-01-21T11:46:33.518Z,29.30
2019-01-21T11:49:06.795Z,29.30
2019-01-21T11:51:51.430Z,30.77
2019-01-21T11:54:21.514Z,29.45
2019-01-21T11:56:51.907Z,28.85
2019-01-21T11:59:47.346Z,29.12
2019-01-21T12:02:21.533Z,30.37
2019-01-21T12:04:54.633Z,28.57
2019-01-21T12:07:56.228Z,29.75
2019-01-21T12:10:35.639Z,31.40
2019-01-21T12:13:23.951Z,28.60
2019-01-21T12:16:02.510Z,28.75
2019-01-21T12:18:38.701Z,28.80
2019-01-21T12:21:14.846Z,27.90
2019-01-21T12:23:44.849Z,27.95
2019-01-21T12:26:24.132Z,30.40
2019-01-21T12:29:05.662Z,26.17
2019-01-21T12:31:38.817Z,27.95
2019-01-21T12:34:17.934Z,25.48
2019-01-21T12:36:53.533Z,27.73
2019-01-21T12:39:26.514Z,27.32
2019-01-21T12:42:14.793Z,26.50
2019-01-21T12:45:09.773Z,26.70
2019-01-21T12:48:01.047Z,28.45
2019-01-21T12:50:46.355Z,25.43
2019-01-21T12:53:28.244Z,27.22
2019-01-21T12:56:25.611Z,27.75
2019-01-21T12:59:04.940Z,27.52
2019-01-21T13:01:35.144Z,28.10
2019-01-21T13:04:08.223Z,29.27
2019-01-21T13:07:11.365Z,35.48
2019-01-21T13:10:02.415Z,29.63
2019-01-21T13:12:50.622Z,37.73
2019-01-21T13:15:37.460Z,29.40
2019-01-21T13:18:13.940Z,34.60
2019-01-21T13:20:46.767Z,28.87
2019-01-21T13:23:16.883Z,26.83
2019-01-21T13:25:49.670Z,26.77
2019-01-21T13:28:54.480Z,28.57
2019-01-21T13:31:35.287Z,27.33
2019-01-21T13:34:23.529Z,26.73
2019-01-21T13:36:53.556Z,26.57
2019-01-21T13:39:49.749Z,27.70
2019-01-21T13:42:19.742Z,27.53
2019-01-21T13:44:49.756Z,25.48
2019-01-21T13:47:41.087Z,26.60
2019-01-21T13:50:16.712Z,27.10
2019-01-21T13:52:58.750Z,27.32
2019-01-21T13:55:28.915Z,28.30
2019-01-21T13:58:14.065Z,25.67
2019-01-21T14:01:05.564Z,29.17
2019-01-21T14:03:38.712Z,27.60
2019-01-21T14:06:23.477Z,26.80
2019-01-21T14:09:08.744Z,28.57
2019-01-21T14:11:38.779Z,28.23
2019-01-21T14:14:08.843Z,27.70
2019-01-21T14:16:56.675Z,29.23
2019-01-21T14:19:26.754Z,27.63
2019-01-21T14:21:57.036Z,29.83
2019-01-21T14:24:27.247Z,28.13
2019-01-21T14:27:00.209Z,28.03
2019-01-21T14:29:33.116Z,27.53
2019-01-21T14:32:11.980Z,28.23
2019-01-21T14:34:42.066Z,28.90
2019-01-21T14:37:12.296Z,27.60
2019-01-21T14:39:48.384Z,28.40
2019-01-21T14:42:18.494Z,28.83
2019-01-21T14:45:07.142Z,29.40
2019-01-21T14:48:06.330Z,28.50
2019-01-21T14:50:50.451Z,27.60
2019-01-21T14:53:20.257Z,29.60
2019-01-21T14:56:02.597Z,30.10
2019-01-21T14:58:38.513Z,27.60
2019-01-21T15:01:11.510Z,29.57
2019-01-21T15:03:50.797Z,30.27
2019-01-21T15:06:21.180Z,30.20
2019-01-21T15:08:57.344Z,30.82
2019-01-21T15:11:30.461Z,29.98
2019-01-21T15:14:00.957Z,31.73
2019-01-21T15:16:39.787Z,29.43
2019-01-21T15:19:09.855Z,28.73
2019-01-21T15:21:55.225Z,30.20
2019-01-21T15:24:28.673Z,28.67
2019-01-21T15:27:01.651Z,31.37
2019-01-21T15:29:54.591Z,29.47
2019-01-21T15:32:41.550Z,30.70
2019-01-21T15:35:32.453Z,30.47
2019-01-21T15:38:06.960Z,31.97
2019-01-21T15:40:45.827Z,30.82
2019-01-21T15:43:15.856Z,29.13
2019-01-21T15:45:54.255Z,29.80
2019-01-21T15:48:30.347Z,32.37
2019-01-21T15:51:09.543Z,30.85
2019-01-21T15:53:42.358Z,32.15
2019-01-21T15:59:59.324Z,29.70
2019-01-21T16:02:31.875Z,29.75
2019-01-21T16:05:07.973Z,35.28
2019-01-21T16:07:37.924Z,31.80
2019-01-21T16:10:19.841Z,32.78
2019-01-21T16:12:58.647Z,30.13
2019-01-21T16:15:46.784Z,39.00
2019-01-21T16:18:19.551Z,28.67
2019-01-21T16:21:01.514Z,29.77
2019-01-21T16:23:40.309Z,39.57
2019-01-21T16:26:06.644Z,32.70
2019-01-21T16:28:36.709Z,29.50
2019-01-21T16:31:09.637Z,29.93
2019-01-21T16:34:06.803Z,32.10
2019-01-21T16:36:53.790Z,31.57
2019-01-21T16:39:35.989Z,31.03
2019-01-21T16:42:14.319Z,33.53
2019-01-21T16:44:42.569Z,32.40
2019-01-21T16:47:08.739Z,33.67
2019-01-21T16:49:35.378Z,31.70
2019-01-21T16:52:01.676Z,32.90
2019-01-21T16:54:28.234Z,33.48
2019-01-21T16:56:54.647Z,34.27
2019-01-21T16:59:21.736Z,35.30
2019-01-21T17:01:48.831Z,32.95
2019-01-21T17:04:15.678Z,34.65
2019-01-21T17:06:42.146Z,35.17
2019-01-21T17:09:09.024Z,38.97
2019-01-21T17:11:35.617Z,34.80
2019-01-21T17:14:01.855Z,35.83
2019-01-21T17:16:28.013Z,36.45
2019-01-21T17:18:54.174Z,36.40
2019-01-21T17:21:21.314Z,37.10
2019-01-21T17:23:48.480Z,45.30
2019-01-21T17:26:14.711Z,34.40
2019-01-21T17:28:40.941Z,36.80
2019-01-21T17:31:27.231Z,37.20
2019-01-21T17:33:58.278Z,35.10
2019-01-21T17:39:25.362Z,36.77
2019-01-21T17:41:51.834Z,31.47
2019-01-21T17:47:52.828Z,34.80
2019-01-21T17:50:19.283Z,39.67
2019-01-21T17:56:09.363Z,38.80
2019-01-21T17:58:35.734Z,41.58
2019-01-21T18:01:02.056Z,39.18
2019-01-21T18:06:39.343Z,39.53
2019-01-21T18:09:06.974Z,39.90
2019-01-21T18:11:33.294Z,40.43
2019-01-21T18:17:24.029Z,41.10
2019-01-21T18:19:50.625Z,42.27
2019-01-21T18:22:17.085Z,40.87
2019-01-21T18:27:55.593Z,42.33
2019-01-21T18:30:23.593Z,40.73
2019-01-21T18:32:50.660Z,43.97
2019-01-21T18:38:40.757Z,40.60
2019-01-21T18:41:07.485Z,42.60
2019-01-21T18:43:35.271Z,37.53
2019-01-21T18:46:01.854Z,40.13
2019-01-21T18:48:28.421Z,42.67
2019-01-21T18:50:55.068Z,41.73
2019-01-21T18:53:21.816Z,45.27
2019-01-21T18:59:11.399Z,39.87
2019-01-21T19:01:37.622Z,41.90
2019-01-21T19:04:03.952Z,42.03
2019-01-21T19:06:40.621Z,37.50
2019-01-21T19:09:07.320Z,40.23
2019-01-21T19:11:45.328Z,40.90
2019-01-21T19:14:12.309Z,40.73
2019-01-21T19:20:05.960Z,40.87
2019-01-21T19:22:33.928Z,36.10
2019-01-21T19:25:00.419Z,43.70
2019-01-21T19:27:26.594Z,40.60
2019-01-21T19:29:53.647Z,40.73
2019-01-21T19:35:44.235Z,41.73
2019-01-21T19:41:22.322Z,39.50
2019-01-21T19:43:48.759Z,39.50
2019-01-21T19:46:15.582Z,44.10
2019-01-21T19:48:42.024Z,41.33
2019-01-21T19:51:08.462Z,42.30
2019-01-21T19:53:34.819Z,35.60
2019-01-21T19:56:01.139Z,38.50
2019-01-21T20:01:39.017Z,41.20
2019-01-21T20:04:05.218Z,39.73
2019-01-21T20:06:31.542Z,39.97
2019-01-21T20:08:58.018Z,42.23
2019-01-21T20:11:24.680Z,38.70
2019-01-21T20:13:51.042Z,43.40
2019-01-21T20:16:17.817Z,40.80
2019-01-21T20:21:55.039Z,42.43
2019-01-21T20:24:21.496Z,42.73
2019-01-21T20:26:47.765Z,41.37
2019-01-21T20:32:37.413Z,42.07
2019-01-21T20:35:05.556Z,39.33
2019-01-21T20:37:32.138Z,43.00
2019-01-21T20:39:58.637Z,40.03
2019-01-21T20:42:25.041Z,42.67
2019-01-21T20:44:51.524Z,40.67
2019-01-21T20:47:17.729Z,39.43
2019-01-21T20:49:44.114Z,42.13
2019-01-21T20:52:14.202Z,41.60
2019-01-21T20:54:38.762Z,43.60
2019-01-21T20:57:05.307Z,41.18
2019-01-21T20:59:31.908Z,42.37
2019-01-21T21:01:58.444Z,44.77
2019-01-21T21:04:25.198Z,39.50
2019-01-21T21:06:51.895Z,41.47
2019-01-21T21:09:18.570Z,43.63
2019-01-21T21:11:45.148Z,41.95
2019-01-21T21:14:11.745Z,43.97
2019-01-21T21:16:38.343Z,40.43
2019-01-21T21:19:04.776Z,40.17
2019-01-21T21:21:31.588Z,41.77
2019-01-21T21:23:58.680Z,41.77
2019-01-21T21:26:25.284Z,45.13
2019-01-21T21:28:52.314Z,40.67
2019-01-21T21:34:54.806Z,41.00
2019-01-21T21:37:21.524Z,42.50
2019-01-21T21:39:48.179Z,41.93
2019-01-21T21:42:14.914Z,41.57
2019-01-21T21:44:41.415Z,45.67
2019-01-21T21:47:07.780Z,43.90
2019-01-21T21:49:34.299Z,44.27
2019-01-21T21:52:00.938Z,44.57
2019-01-21T21:54:27.272Z,45.77
2019-01-21T21:56:54.111Z,42.27
2019-01-21T21:59:20.523Z,42.80
2019-01-21T22:01:47.097Z,46.57
2019-01-21T22:04:13.599Z,41.47
2019-01-21T22:06:40.348Z,43.87
2019-01-21T22:09:06.978Z,43.70
2019-01-21T22:11:33.288Z,45.52
2019-01-21T22:13:59.731Z,42.47
2019-01-21T22:16:26.585Z,45.30
2019-01-21T22:18:53.573Z,45.47
2019-01-21T22:21:19.983Z,43.83
2019-01-21T22:23:46.415Z,44.33
2019-01-21T22:26:13.272Z,45.45
2019-01-21T22:28:39.905Z,43.80
2019-01-21T22:31:06.431Z,47.40
2019-01-21T22:33:32.856Z,45.10
2019-01-21T22:35:59.274Z,42.73
2019-01-21T22:38:25.626Z,44.00
2019-01-21T22:40:52.016Z,48.95
2019-01-21T22:43:18.307Z,47.87
2019-01-21T22:45:44.654Z,42.53
2019-01-21T22:51:34.631Z,44.13
2019-01-21T22:54:01.389Z,44.55
2019-01-21T22:56:27.720Z,42.17
2019-01-21T22:58:54.172Z,43.40
2019-01-21T23:01:21.295Z,44.40
2019-01-21T23:03:48.038Z,43.80
2019-01-21T23:06:14.963Z,41.90
2019-01-21T23:08:41.186Z,43.38
2019-01-21T23:11:07.649Z,44.50
2019-01-21T23:13:33.878Z,43.90
2019-01-21T23:16:00.287Z,42.80
2019-01-21T23:18:26.628Z,44.50
2019-01-21T23:20:52.924Z,44.17
2019-01-21T23:23:19.288Z,42.23
2019-01-21T23:25:46.044Z,45.50
2019-01-21T23:28:12.718Z,44.10
2019-01-21T23:30:39.395Z,45.20
2019-01-21T23:33:05.756Z,45.80
2019-01-21T23:35:32.507Z,47.40
2019-01-21T23:37:59.053Z,47.17
2019-01-21T23:40:25.646Z,47.07
2019-01-21T23:46:15.536Z,43.78
2019-01-21T23:48:41.876Z,48.10
2019-01-21T23:51:08.119Z,46.70
2019-01-21T23:53:34.618Z,46.03
2019-01-21T23:56:01.360Z,46.50
2019-01-21T23:58:27.864Z,47.93
